createdAt,value
2018-08-04T00:00:08.871Z,24.70
2018-08-04T00:02:37.520Z,24.80
2018-08-04T00:05:06.255Z,24.80
2018-08-04T00:07:34.888Z,24.90
2018-08-04T00:10:03.231Z,24.90
2018-08-04T00:12:31.564Z,25.00
2018-08-04T00:14:59.876Z,24.90
2018-08-04T00:17:28.192Z,24.90
2018-08-04T00:19:56.504Z,25.10
2018-08-04T00:22:24.847Z,25.10
2018-08-04T00:24:53.214Z,25.30
2018-08-04T00:27:21.537Z,25.30
2018-08-04T00:29:49.907Z,25.30
2018-08-04T00:32:18.248Z,25.30
2018-08-04T00:34:46.555Z,25.30
2018-08-04T00:37:14.928Z,25.30
2018-08-04T00:39:43.236Z,25.30
2018-08-04T00:42:11.544Z,25.10
2018-08-04T00:44:39.855Z,24.90
2018-08-04T00:47:08.164Z,24.70
2018-08-04T00:49:36.532Z,24.60
2018-08-04T00:52:04.851Z,24.50
2018-08-04T00:54:33.163Z,24.50
2018-08-04T00:57:01.456Z,24.50
2018-08-04T00:59:29.791Z,24.60
2018-08-04T01:01:58.104Z,24.50
2018-08-04T01:04:26.423Z,24.50
2018-08-04T01:06:54.720Z,24.50
2018-08-04T01:09:23.065Z,24.50
2018-08-04T01:11:51.364Z,24.50
2018-08-04T01:14:19.667Z,24.50
2018-08-04T01:16:47.972Z,24.40
2018-08-04T01:19:16.340Z,24.40
2018-08-04T01:21:44.644Z,24.30
2018-08-04T01:24:12.961Z,24.20
2018-08-04T01:26:41.291Z,24.20
2018-08-04T01:29:09.626Z,24.20
2018-08-04T01:31:37.924Z,24.30
2018-08-04T01:34:06.257Z,24.30
2018-08-04T01:36:34.588Z,24.30
2018-08-04T01:39:02.979Z,24.20
2018-08-04T01:41:31.292Z,24.30
2018-08-04T01:44:00.363Z,24.30
2018-08-04T01:46:28.696Z,24.40
2018-08-04T01:48:57.016Z,24.50
2018-08-04T01:51:25.328Z,24.50
2018-08-04T01:53:53.628Z,24.50
2018-08-04T01:56:21.939Z,24.50
2018-08-04T01:58:50.396Z,24.40
2018-08-04T02:01:18.716Z,24.40
2018-08-04T02:03:47.018Z,24.40
2018-08-04T02:06:16.332Z,24.50
2018-08-04T02:08:44.642Z,24.50
2018-08-04T02:11:12.985Z,24.40
2018-08-04T02:13:41.877Z,24.40
2018-08-04T02:16:10.232Z,24.40
2018-08-04T02:18:38.579Z,24.30
2018-08-04T02:21:06.892Z,24.20
2018-08-04T02:23:35.226Z,24.30
2018-08-04T02:26:03.995Z,24.40
2018-08-04T02:28:32.313Z,24.30
2018-08-04T02:31:00.618Z,24.30
2018-08-04T02:33:28.930Z,24.30
2018-08-04T02:35:57.311Z,24.30
2018-08-04T02:38:25.636Z,24.20
2018-08-04T02:40:53.996Z,24.20
2018-08-04T02:43:22.317Z,24.20
2018-08-04T02:45:50.619Z,24.30
2018-08-04T02:48:19.588Z,24.20
2018-08-04T02:50:47.907Z,24.20
2018-08-04T02:53:16.276Z,24.20
2018-08-04T02:55:44.574Z,24.20
2018-08-04T02:58:12.880Z,24.20
2018-08-04T03:00:41.240Z,24.10
2018-08-04T03:03:09.544Z,24.20
2018-08-04T03:05:37.867Z,24.30
2018-08-04T03:08:06.282Z,24.30
2018-08-04T03:10:34.626Z,24.30
2018-08-04T03:13:03.028Z,24.30
2018-08-04T03:15:31.336Z,24.30
2018-08-04T03:17:59.660Z,24.20
2018-08-04T03:20:28.234Z,24.00
2018-08-04T03:22:56.960Z,23.80
2018-08-04T03:25:25.293Z,23.70
2018-08-04T03:27:53.644Z,23.70
2018-08-04T03:30:21.955Z,23.60
2018-08-04T03:32:50.247Z,23.60
2018-08-04T03:35:18.552Z,23.60
2018-08-04T03:37:46.855Z,23.50
